Time;durP1;ratioP1;P1;durP2;ratioP2;P2;SDS_P1;SDS_P2;PMS_P1;PMS_P2;Temp;Humidity;BMP_temperature;BMP_pressure;BME280_temperature;BME280_humidity;BME280_pressure;Samples;Min_cycle;Max_cycle;Signal;HPM_P1;HPM_P2
2023/05/10 00:00:06;;;;;;;;;;;;;;;;;;5058297;28;4615;-57
2023/05/10 00:02:31;;;;;;;;;;;;;;;;;;5055629;28;4952;-57
2023/05/10 00:04:56;;;;;;;;;;;;;;;;;;5058892;28;5127;-58
2023/05/10 00:07:22;;;;;;;;;;;;;;;;;;5052153;28;4812;-56
2023/05/10 00:09:47;;;;;;;;;;;;;;;;;;5056523;28;6328;-56
2023/05/10 00:12:12;;;;;;;;;;;;;;;;;;5046316;28;4541;-54
2023/05/10 00:14:37;;;;;;;;;;;;;;;;;;5065679;28;4817;-56
2023/05/10 00:17:03;;;;;;;;;;;;;;;;;;5064955;28;4437;-56
2023/05/10 00:19:28;;;;;;;;;;;;;;;;;;5053623;28;4472;-54
2023/05/10 00:21:54;;;;;;;;;;;;;;;;;;5061082;28;1422;-57
2023/05/10 00:24:20;;;;;;;;;;;;;;;;;;5057360;28;4640;-56
2023/05/10 00:26:45;;;;;;;;;;;;;;;;;;5064397;28;4831;-55
2023/05/10 00:29:10;;;;;;;;;;;;;;;;;;5054762;28;4956;-57
2023/05/10 00:31:35;;;;;;;;;;;;;;;;;;5062773;28;4464;-57
2023/05/10 00:34:01;;;;;;;;;;;;;;;;;;5053704;28;4877;-58
2023/05/10 00:36:27;;;;;;;;;;;;;;;;;;5054897;28;1085;-58
2023/05/10 00:38:52;;;;;;;;;;;;;;;;;;5060541;28;4436;-58
2023/05/10 00:41:17;;;;;;;;;;;;;;;;;;5055308;28;5351;-56
2023/05/10 00:43:43;;;;;;;;;;;;;;;;;;5053229;28;5415;-57
2023/05/10 00:46:08;;;;;;;;;;;;;;;;;;5051102;28;5094;-57
2023/05/10 00:48:33;;;;;;;;;;;;;;;;;;5059692;28;1124;-56
2023/05/10 00:50:59;;;;;;;;;;;;;;;;;;5055000;28;4464;-56
2023/05/10 00:53:24;;;;;;;;;;;;;;;;;;5061129;28;4625;-57
2023/05/10 00:55:49;;;;;;;;;;;;;;;;;;5061445;28;4461;-57
2023/05/10 00:58:14;;;;;;;;;;;;;;;;;;5061021;28;5238;-57
2023/05/10 01:00:41;;;;;;;;;;;;;;;;;;5050041;28;1922;-57
2023/05/10 01:03:06;;;;;;;;;;;;;;;;;;5043668;28;4841;-56
2023/05/10 01:05:31;;;;;;;;;;;;;;;;;;5047853;28;4484;-57
2023/05/10 01:07:57;;;;;;;;;;;;;;;;;;5059178;28;4460;-57
2023/05/10 01:10:22;;;;;;;;;;;;;;;;;;5051990;28;6455;-57
2023/05/10 01:12:48;;;;;;;;;;;;;;;;;;5060810;28;1516;-57
2023/05/10 01:15:13;;;;;;;;;;;;;;;;;;5062448;28;4416;-57
2023/05/10 01:17:39;;;;;;;;;;;;;;;;;;5055704;28;4408;-56
2023/05/10 01:20:05;;;;;;;;;;;;;;;;;;5059308;28;4952;-57
2023/05/10 01:22:30;;;;;;;;;;;;;;;;;;5048210;28;4994;-57
2023/05/10 01:25:10;;;;;;;;;;;;;;;;;;5049210;28;4691;-53
2023/05/10 01:27:47;;;;;;;;;;;;;;;;;;5089349;28;1373;-55
2023/05/10 01:30:22;;;;;;;;;;;;;;;;;;5057462;28;4438;-57
2023/05/10 01:33:01;;;;;;;;;;;;;;;;;;5049467;28;4894;-58
2023/05/10 01:35:29;;;;;;;;;;;;;;;;;;5038564;28;4930;-56
2023/05/10 01:38:13;;;;;;;;;;;;;;;;;;5058902;28;4521;-55
2023/05/10 01:40:41;;;;;;;;;;;;;;;;;;5046433;28;4909;-57
2023/05/10 01:43:08;;;;;;;;;;;;;;;;;;5047159;28;4433;-55
2023/05/10 01:45:36;;;;;;;;;;;;;;;;;;5055199;28;1123;-58
2023/05/10 01:48:05;;;;;;;;;;;;;;;;;;5040272;28;4874;-56
2023/05/10 01:50:30;;;;;;;;;;;;;;;;;;5056008;28;4845;-56
2023/05/10 01:52:56;;;;;;;;;;;;;;;;;;5049859;28;4652;-57
2023/05/10 01:55:22;;;;;;;;;;;;;;;;;;5046674;28;4683;-56
2023/05/10 01:57:48;;;;;;;;;;;;;;;;;;5053982;28;1639;-58
2023/05/10 02:00:13;;;;;;;;;;;;;;;;;;5045254;28;5000;-55
2023/05/10 02:02:39;;;;;;;;;;;;;;;;;;5044792;28;4638;-57
2023/05/10 02:05:07;;;;;;;;;;;;;;;;;;5054282;28;4492;-57
2023/05/10 02:07:33;;;;;;;;;;;;;;;;;;5046965;28;4941;-58
2023/05/10 02:09:59;;;;;;;;;;;;;;;;;;5050934;28;6494;-55
2023/05/10 02:12:24;;;;;;;;;;;;;;;;;;5052619;28;1703;-58
2023/05/10 02:14:50;;;;;;;;;;;;;;;;;;5059630;28;4995;-58
2023/05/10 02:17:15;;;;;;;;;;;;;;;;;;5061214;28;5936;-54
2023/05/10 02:19:41;;;;;;;;;;;;;;;;;;5062227;28;4522;-58
2023/05/10 02:22:08;;;;;;;;;;;;;;;;;;5047399;28;4688;-57
2023/05/10 02:24:33;;;;;;;;;;;;;;;;;;5053375;28;1695;-58
2023/05/10 02:26:58;;;;;;;;;;;;;;;;;;5047197;28;4441;-56
2023/05/10 02:29:24;;;;;;;;;;;;;;;;;;5046145;28;4926;-56
2023/05/10 02:31:51;;;;;;;;;;;;;;;;;;5045875;28;4616;-57
2023/05/10 02:34:16;;;;;;;;;;;;;;;;;;5048980;28;4563;-55
2023/05/10 02:36:41;;;;;;;;;;;;;;;;;;5047519;28;1101;-58
2023/05/10 02:39:09;;;;;;;;;;;;;;;;;;5047986;28;4839;-57
2023/05/10 02:41:35;;;;;;;;;;;;;;;;;;5051725;28;4522;-58
2023/05/10 02:44:02;;;;;;;;;;;;;;;;;;5041531;28;4485;-58
2023/05/10 02:46:27;;;;;;;;;;;;;;;;;;5052048;28;5608;-57
2023/05/10 02:48:52;;;;;;;;;;;;;;;;;;5056996;28;1847;-55
2023/05/10 02:51:18;;;;;;;;;;;;;;;;;;5058854;28;4426;-55
2023/05/10 02:53:44;;;;;;;;;;;;;;;;;;5046557;28;4766;-57
2023/05/10 02:56:13;;;;;;;;;;;;;;;;;;5051795;28;4562;-57
2023/05/10 02:58:38;;;;;;;;;;;;;;;;;;5042788;28;4482;-57
2023/05/10 03:01:03;;;;;;;;;;;;;;;;;;5052151;28;5130;-54
2023/05/10 03:03:28;;;;;;;;;;;;;;;;;;5057526;28;1281;-56
2023/05/10 03:05:55;;;;;;;;;;;;;;;;;;5057720;28;5012;-56
2023/05/10 03:08:21;;;;;;;;;;;;;;;;;;5055871;28;6452;-58
2023/05/10 03:10:59;;;;;;;;;;;;;;;;;;5050270;28;4498;-58
2023/05/10 03:13:28;;;;;;;;;;;;;;;;;;5041773;28;4563;-58
2023/05/10 03:15:53;;;;;;;;;;;;;;;;;;5058346;28;1222;-56
2023/05/10 03:18:21;;;;;;;;;;;;;;;;;;5060716;28;4402;-58
2023/05/10 03:20:48;;;;;;;;;;;;;;;;;;5049290;28;5259;-56
2023/05/10 03:23:23;;;;;;;;;;;;;;;;;;5050733;28;5283;-57
2023/05/10 03:25:48;;;;;;;;;;;;;;;;;;5061450;28;5143;-57
2023/05/10 03:28:14;;;;;;;;;;;;;;;;;;5072223;28;4507;-54
2023/05/10 03:30:40;;;;;;;;;;;;;;;;;;5053598;28;1101;-58
2023/05/10 03:33:06;;;;;;;;;;;;;;;;;;5066316;28;4495;-57
2023/05/10 03:35:31;;;;;;;;;;;;;;;;;;5057587;28;4677;-58
2023/05/10 03:37:56;;;;;;;;;;;;;;;;;;5052753;28;4709;-58
2023/05/10 03:40:22;;;;;;;;;;;;;;;;;;5053692;28;4901;-56
2023/05/10 03:42:48;;;;;;;;;;;;;;;;;;5051542;28;1547;-57
2023/05/10 03:45:13;;;;;;;;;;;;;;;;;;5059581;28;4416;-57
2023/05/10 03:47:38;;;;;;;;;;;;;;;;;;5062633;28;4809;-55
2023/05/10 03:50:04;;;;;;;;;;;;;;;;;;5061566;28;4886;-57
2023/05/10 03:52:29;;;;;;;;;;;;;;;;;;5056493;28;4497;-57
2023/05/10 03:54:54;;;;;;;;;;;;;;;;;;5065307;28;1262;-57
2023/05/10 03:57:19;;;;;;;;;;;;;;;;;;5056641;28;4483;-57
2023/05/10 03:59:45;;;;;;;;;;;;;;;;;;5062451;28;4413;-58
2023/05/10 04:02:10;;;;;;;;;;;;;;;;;;5056101;28;4712;-57
2023/05/10 04:04:36;;;;;;;;;;;;;;;;;;5051437;28;4968;-57
2023/05/10 04:07:01;;;;;;;;;;;;;;;;;;5060820;28;4618;-57
2023/05/10 04:09:26;;;;;;;;;;;;;;;;;;5052687;28;6592;-58
2023/05/10 04:11:51;;;;;;;;;;;;;;;;;;5061824;28;4529;-58
2023/05/10 04:14:17;;;;;;;;;;;;;;;;;;5049289;28;4545;-58
2023/05/10 04:16:42;;;;;;;;;;;;;;;;;;5064702;28;4480;-58
2023/05/10 04:19:07;;;;;;;;;;;;;;;;;;5053563;28;4848;-57
2023/05/10 04:21:32;;;;;;;;;;;;;;;;;;5057160;28;1766;-59
2023/05/10 04:23:58;;;;;;;;;;;;;;;;;;5049749;28;4503;-59
2023/05/10 04:26:24;;;;;;;;;;;;;;;;;;5053449;28;4635;-57
2023/05/10 04:28:50;;;;;;;;;;;;;;;;;;5060673;28;4634;-57
2023/05/10 04:31:15;;;;;;;;;;;;;;;;;;5050680;28;4974;-56
2023/05/10 04:33:40;;;;;;;;;;;;;;;;;;5060701;28;1780;-58
2023/05/10 04:36:05;;;;;;;;;;;;;;;;;;5050450;28;5096;-55
2023/05/10 04:38:31;;;;;;;;;;;;;;;;;;5059713;28;4695;-57
2023/05/10 04:41:08;;;;;;;;;;;;;;;;;;5053930;28;5051;-57
2023/05/10 04:43:34;;;;;;;;;;;;;;;;;;5044768;28;4643;-57
2023/05/10 04:45:59;;;;;;;;;;;;;;;;;;5049254;28;4539;-58
2023/05/10 04:48:24;;;;;;;;;;;;;;;;;;5054530;28;1405;-57
2023/05/10 04:50:49;;;;;;;;;;;;;;;;;;5060112;28;5028;-58
2023/05/10 04:53:15;;;;;;;;;;;;;;;;;;5054067;28;4473;-57
2023/05/10 04:55:40;;;;;;;;;;;;;;;;;;5057344;28;4698;-55
2023/05/10 04:58:05;;;;;;;;;;;;;;;;;;5062882;28;5074;-56
2023/05/10 05:00:30;;;;;;;;;;;;;;;;;;5056165;28;1979;-55
2023/05/10 05:02:56;;;;;;;;;;;;;;;;;;5056000;28;4596;-56
2023/05/10 05:05:21;;;;;;;;;;;;;;;;;;5057306;28;4989;-56
2023/05/10 05:07:46;;;;;;;;;;;;;;;;;;5053844;28;5228;-57
2023/05/10 05:10:11;;;;;;;;;;;;;;;;;;5048906;28;6490;-56
2023/05/10 05:12:37;;;;;;;;;;;;;;;;;;5056148;28;1339;-56
2023/05/10 05:15:02;;;;;;;;;;;;;;;;;;5058266;28;4584;-56
2023/05/10 05:17:29;;;;;;;;;;;;;;;;;;5061816;28;4669;-55
2023/05/10 05:19:55;;;;;;;;;;;;;;;;;;5053771;28;4724;-55
2023/05/10 05:22:27;;;;;;;;;;;;;;;;;;5046269;28;4667;-56
2023/05/10 05:24:52;;;;;;;;;;;;;;;;;;5053987;28;1444;-56
2023/05/10 05:27:17;;;;;;;;;;;;;;;;;;5056348;28;4588;-57
2023/05/10 05:29:42;;;;;;;;;;;;;;;;;;5048762;28;5102;-57
2023/05/10 05:32:08;;;;;;;;;;;;;;;;;;5052990;28;4702;-56
2023/05/10 05:34:33;;;;;;;;;;;;;;;;;;5060167;28;4929;-60
2023/05/10 05:36:58;;;;;;;;;;;;;;;;;;5052366;28;4721;-55
2023/05/10 05:39:24;;;;;;;;;;;;;;;;;;5046046;28;1969;-57
2023/05/10 05:41:49;;;;;;;;;;;;;;;;;;5051204;28;4948;-56
2023/05/10 05:44:14;;;;;;;;;;;;;;;;;;5046710;28;4699;-63
2023/05/10 05:46:40;;;;;;;;;;;;;;;;;;5059593;28;4489;-64
2023/05/10 05:49:05;;;;;;;;;;;;;;;;;;5058793;28;5107;-68
2023/05/10 05:51:30;;;;;;;;;;;;;;;;;;5057177;28;1472;-68
2023/05/10 05:53:56;;;;;;;;;;;;;;;;;;5046990;28;4633;-63
2023/05/10 05:56:24;;;;;;;;;;;;;;;;;;5046745;28;4643;-67
2023/05/10 05:58:52;;;;;;;;;;;;;;;;;;5053164;28;4474;-66
2023/05/10 06:01:17;;;;;;;;;;;;;;;;;;5056250;28;4464;-64
2023/05/10 06:03:42;;;;;;;;;;;;;;;;;;5052441;28;1142;-62
2023/05/10 06:06:07;;;;;;;;;;;;;;;;;;5053442;28;4602;-65
2023/05/10 06:08:33;;;;;;;;;;;;;;;;;;5057993;28;6450;-62
2023/05/10 06:10:59;;;;;;;;;;;;;;;;;;5053881;28;4583;-61
2023/05/10 06:13:24;;;;;;;;;;;;;;;;;;5042693;28;4963;-67
2023/05/10 06:15:49;;;;;;;;;;;;;;;;;;5058761;28;1386;-66
2023/05/10 06:18:15;;;;;;;;;;;;;;;;;;5057238;28;4814;-67
2023/05/10 06:20:40;;;;;;;;;;;;;;;;;;5054146;28;5102;-67
2023/05/10 06:23:06;;;;;;;;;;;;;;;;;;5053431;28;4498;-68
2023/05/10 06:25:31;;;;;;;;;;;;;;;;;;5060425;28;4454;-68
2023/05/10 06:27:57;;;;;;;;;;;;;;;;;;5052655;28;4549;-61
2023/05/10 06:30:27;;;;;;;;;;;;;;;;;;5050667;28;1089;-65
2023/05/10 06:32:52;;;;;;;;;;;;;;;;;;5062978;28;4506;-60
2023/05/10 06:35:17;;;;;;;;;;;;;;;;;;5045197;28;4615;-65
2023/05/10 06:37:42;;;;;;;;;;;;;;;;;;5059174;28;4657;-65
2023/05/10 06:40:09;;;;;;;;;;;;;;;;;;5047918;28;4691;-63
2023/05/10 06:42:34;;;;;;;;;;;;;;;;;;5046297;28;1524;-66
2023/05/10 06:44:59;;;;;;;;;;;;;;;;;;5053929;28;5042;-66
2023/05/10 06:47:24;;;;;;;;;;;;;;;;;;5046552;28;4700;-65
2023/05/10 06:49:50;;;;;;;;;;;;;;;;;;5059047;28;4568;-62
2023/05/10 06:52:15;;;;;;;;;;;;;;;;;;5058870;28;4636;-66
2023/05/10 06:54:40;;;;;;;;;;;;;;;;;;5060922;28;1811;-67
2023/05/10 06:57:06;;;;;;;;;;;;;;;;;;5061396;28;4903;-69
2023/05/10 06:59:31;;;;;;;;;;;;;;;;;;5049934;28;4937;-67
2023/05/10 07:01:56;;;;;;;;;;;;;;;;;;5047894;28;5180;-64
2023/05/10 07:04:21;;;;;;;;;;;;;;;;;;5052961;28;4540;-68
2023/05/10 07:06:47;;;;;;;;;;;;;;;;;;5054066;28;1655;-68
2023/05/10 07:09:13;;;;;;;;;;;;;;;;;;5057701;28;6389;-67
2023/05/10 07:11:38;;;;;;;;;;;;;;;;;;5050891;28;4515;-67
2023/05/10 07:14:03;;;;;;;;;;;;;;;;;;5038683;28;4989;-63
2023/05/10 07:16:29;;;;;;;;;;;;;;;;;;5049035;28;4837;-63
2023/05/10 07:18:54;;;;;;;;;;;;;;;;;;5058665;28;1377;-68
2023/05/10 07:21:19;;;;;;;;;;;;;;;;;;5058455;28;4678;-61
2023/05/10 07:23:45;;;;;;;;;;;;;;;;;;5048087;28;4422;-64
2023/05/10 07:26:10;;;;;;;;;;;;;;;;;;5055743;28;4821;-59
2023/05/10 07:28:37;;;;;;;;;;;;;;;;;;5059538;28;4661;-64
2023/05/10 07:31:02;;;;;;;;;;;;;;;;;;5051775;28;4519;-63
2023/05/10 07:33:27;;;;;;;;;;;;;;;;;;5049750;28;1718;-61
2023/05/10 07:35:53;;;;;;;;;;;;;;;;;;5040632;28;4443;-61
2023/05/10 07:38:18;;;;;;;;;;;;;;;;;;5050648;28;4461;-61
2023/05/10 07:40:43;;;;;;;;;;;;;;;;;;5052170;28;4713;-60
2023/05/10 07:43:08;;;;;;;;;;;;;;;;;;5047795;28;4650;-60
2023/05/10 07:45:34;;;;;;;;;;;;;;;;;;5046767;28;1659;-61
2023/05/10 07:47:59;;;;;;;;;;;;;;;;;;5048990;28;4451;-59
2023/05/10 07:50:24;;;;;;;;;;;;;;;;;;5048497;28;4620;-58
2023/05/10 07:52:50;;;;;;;;;;;;;;;;;;5060858;28;4468;-58
2023/05/10 07:55:15;;;;;;;;;;;;;;;;;;5059135;28;4638;-58
2023/05/10 07:57:41;;;;;;;;;;;;;;;;;;5066331;28;1079;-57
2023/05/10 08:00:07;;;;;;;;;;;;;;;;;;5053058;28;4447;-59
2023/05/10 08:02:32;;;;;;;;;;;;;;;;;;5046589;28;4612;-59
2023/05/10 08:04:58;;;;;;;;;;;;;;;;;;5055053;28;4469;-59
2023/05/10 08:07:24;;;;;;;;;;;;;;;;;;5053464;28;4936;-59
2023/05/10 08:09:49;;;;;;;;;;;;;;;;;;5046904;28;6587;-59
2023/05/10 08:12:14;;;;;;;;;;;;;;;;;;5056883;28;4923;-59
2023/05/10 08:14:40;;;;;;;;;;;;;;;;;;5057416;28;4616;-59
2023/05/10 08:17:05;;;;;;;;;;;;;;;;;;5065669;28;4650;-59
2023/05/10 08:19:30;;;;;;;;;;;;;;;;;;5057627;28;4487;-60
2023/05/10 08:21:56;;;;;;;;;;;;;;;;;;5051005;28;4652;-54
2023/05/10 08:24:22;;;;;;;;;;;;;;;;;;5064379;28;980;-59
2023/05/10 08:26:47;;;;;;;;;;;;;;;;;;5062233;28;4922;-58
2023/05/10 08:29:13;;;;;;;;;;;;;;;;;;5050304;28;5000;-59
2023/05/10 08:31:38;;;;;;;;;;;;;;;;;;5059840;28;4878;-59
2023/05/10 08:34:03;;;;;;;;;;;;;;;;;;5050921;28;4799;-59
2023/05/10 08:36:28;;;;;;;;;;;;;;;;;;5057804;28;1764;-58
2023/05/10 08:38:54;;;;;;;;;;;;;;;;;;5050710;28;4774;-58
2023/05/10 08:41:20;;;;;;;;;;;;;;;;;;5052143;28;4651;-56
2023/05/10 08:43:46;;;;;;;;;;;;;;;;;;5045569;28;4582;-57
2023/05/10 08:46:12;;;;;;;;;;;;;;;;;;5048022;28;4760;-57
2023/05/10 08:48:37;;;;;;;;;;;;;;;;;;5060994;28;1241;-56
2023/05/10 08:51:03;;;;;;;;;;;;;;;;;;5042782;28;4555;-57
2023/05/10 08:53:28;;;;;;;;;;;;;;;;;;5051635;28;6140;-59
2023/05/10 08:55:54;;;;;;;;;;;;;;;;;;5065162;28;4749;-57
2023/05/10 08:58:19;;;;;;;;;;;;;;;;;;5070685;28;4694;-62
2023/05/10 09:00:44;;;;;;;;;;;;;;;;;;5060560;28;1910;-63
2023/05/10 09:03:10;;;;;;;;;;;;;;;;;;5059933;28;4878;-62
2023/05/10 09:05:35;;;;;;;;;;;;;;;;;;5030033;28;4471;-59
2023/05/10 09:08:01;;;;;;;;;;;;;;;;;;5053082;28;4587;-63
2023/05/10 09:10:27;;;;;;;;;;;;;;;;;;5047014;28;6535;-60
2023/05/10 09:12:52;;;;;;;;;;;;;;;;;;5048127;28;1660;-60
2023/05/10 09:15:19;;;;;;;;;;;;;;;;;;5039604;28;4885;-57
2023/05/10 09:17:44;;;;;;;;;;;;;;;;;;5035262;28;4490;-60
2023/05/10 09:20:10;;;;;;;;;;;;;;;;;;5061439;28;4477;-58
2023/05/10 09:22:35;;;;;;;;;;;;;;;;;;5059670;28;4515;-63
2023/05/10 09:25:07;;;;;;;;;;;;;;;;;;5060938;28;4509;-63
2023/05/10 09:27:32;;;;;;;;;;;;;;;;;;5059602;28;1499;-63
2023/05/10 09:29:58;;;;;;;;;;;;;;;;;;5049174;28;4697;-61
2023/05/10 09:32:35;;;;;;;;;;;;;;;;;;5063895;28;4458;-64
2023/05/10 09:35:05;;;;;;;;;;;;;;;;;;5051449;28;5315;-57
2023/05/10 09:37:31;;;;;;;;;;;;;;;;;;5047603;28;5060;-57
2023/05/10 09:39:56;;;;;;;;;;;;;;;;;;5049676;28;5612;-53
2023/05/10 09:42:21;;;;;;;;;;;;;;;;;;5051177;28;1101;-57
2023/05/10 09:44:47;;;;;;;;;;;;;;;;;;5046684;28;5095;-57
2023/05/10 09:47:17;;;;;;;;;;;;;;;;;;5048939;28;5004;-57
2023/05/10 09:49:42;;;;;;;;;;;;;;;;;;5057943;28;4597;-57
2023/05/10 09:52:07;;;;;;;;;;;;;;;;;;5060037;28;4448;-58
2023/05/10 09:54:33;;;;;;;;;;;;;;;;;;5048679;28;1162;-57
2023/05/10 09:56:58;;;;;;;;;;;;;;;;;;5036541;28;5093;-57
2023/05/10 09:59:24;;;;;;;;;;;;;;;;;;5057290;28;4657;-57
2023/05/10 10:01:50;;;;;;;;;;;;;;;;;;5055629;28;4645;-58
2023/05/10 10:04:16;;;;;;;;;;;;;;;;;;5048836;28;4742;-57
2023/05/10 10:06:41;;;;;;;;;;;;;;;;;;5041047;28;1719;-62
2023/05/10 10:09:06;;;;;;;;;;;;;;;;;;5050373;28;6442;-59
2023/05/10 10:11:34;;;;;;;;;;;;;;;;;;5049453;28;4495;-59
2023/05/10 10:13:59;;;;;;;;;;;;;;;;;;5046986;28;4642;-57
2023/05/10 10:16:25;;;;;;;;;;;;;;;;;;5048546;28;4632;-58
2023/05/10 10:18:50;;;;;;;;;;;;;;;;;;5047184;28;1671;-57
2023/05/10 10:21:15;;;;;;;;;;;;;;;;;;5056493;28;4602;-58
2023/05/10 10:23:40;;;;;;;;;;;;;;;;;;5052912;28;4476;-58
2023/05/10 10:26:06;;;;;;;;;;;;;;;;;;5047076;28;5069;-57
2023/05/10 10:28:43;;;;;;;;;;;;;;;;;;5056992;28;4437;-59
2023/05/10 10:31:13;;;;;;;;;;;;;;;;;;5046106;28;4454;-58
2023/05/10 10:33:45;;;;;;;;;;;;;;;;;;5046910;28;1195;-59
2023/05/10 10:36:10;;;;;;;;;;;;;;;;;;5050012;28;4675;-59
2023/05/10 10:38:59;;;;;;;;;;;;;;;;;;5041019;28;4691;-61
2023/05/10 10:41:28;;;;;;;;;;;;;;;;;;5051555;28;5130;-59
2023/05/10 10:44:29;;;;;;;;;;;;;;;;;;5047248;28;4458;-59
2023/05/10 10:47:00;;;;;;;;;;;;;;;;;;5037816;28;5456;-59
2023/05/10 10:49:26;;;;;;;;;;;;;;;;;;5053587;28;4642;-63
2023/05/10 10:52:10;;;;;;;;;;;;;;;;;;5049949;28;1619;-62
2023/05/10 10:54:35;;;;;;;;;;;;;;;;;;5063721;28;5244;-60
2023/05/10 10:57:19;;;;;;;;;;;;;;;;;;5061816;28;4623;-58
2023/05/10 10:59:45;;;;;;;;;;;;;;;;;;5057023;28;4473;-60
2023/05/10 11:02:10;;;;;;;;;;;;;;;;;;5049433;28;4588;-57
2023/05/10 11:04:43;;;;;;;;;;;;;;;;;;5056402;28;4762;-58
2023/05/10 11:07:17;;;;;;;;;;;;;;;;;;5054847;28;4504;-63
2023/05/10 11:09:43;;;;;;;;;;;;;;;;;;5052521;28;7014;-59
2023/05/10 11:12:08;;;;;;;;;;;;;;;;;;5057665;28;4600;-59
2023/05/10 11:14:33;;;;;;;;;;;;;;;;;;5042509;28;5123;-59
2023/05/10 11:16:58;;;;;;;;;;;;;;;;;;5047902;28;4674;-60
2023/05/10 11:19:24;;;;;;;;;;;;;;;;;;5055275;28;5037;-59
2023/05/10 11:21:50;;;;;;;;;;;;;;;;;;5045794;28;1433;-59
2023/05/10 11:24:16;;;;;;;;;;;;;;;;;;5051084;28;4506;-64
2023/05/10 11:26:42;;;;;;;;;;;;;;;;;;5063855;28;4754;-60
2023/05/10 11:29:07;;;;;;;;;;;;;;;;;;5055772;28;4588;-60
2023/05/10 11:31:32;;;;;;;;;;;;;;;;;;5056017;28;5004;-61
2023/05/10 11:33:58;;;;;;;;;;;;;;;;;;5066044;28;4581;-62
2023/05/10 11:36:25;;;;;;;;;;;;;;;;;;5049238;28;1672;-59
2023/05/10 11:38:50;;;;;;;;;;;;;;;;;;5068714;28;4452;-61
2023/05/10 11:41:16;;;;;;;;;;;;;;;;;;5031364;28;4667;-58
2023/05/10 11:43:42;;;;;;;;;;;;;;;;;;5050136;28;4520;-59
2023/05/10 11:46:07;;;;;;;;;;;;;;;;;;5056578;28;4454;-58
2023/05/10 11:48:33;;;;;;;;;;;;;;;;;;5064316;28;1270;-59
2023/05/10 11:50:58;;;;;;;;;;;;;;;;;;5063585;28;4436;-62
2023/05/10 11:53:27;;;;;;;;;;;;;;;;;;5044948;28;4522;-59
2023/05/10 11:55:52;;;;;;;;;;;;;;;;;;5047994;28;4657;-59
2023/05/10 11:58:17;;;;;;;;;;;;;;;;;;5066477;28;4662;-60
2023/05/10 12:00:43;;;;;;;;;;;;;;;;;;5054926;28;1918;-60
2023/05/10 12:03:10;;;;;;;;;;;;;;;;;;5056612;28;4417;-59
2023/05/10 12:05:35;;;;;;;;;;;;;;;;;;5043945;28;5147;-59
2023/05/10 12:08:19;;;;;;;;;;;;;;;;;;5061070;28;4644;-60
2023/05/10 12:10:44;;;;;;;;;;;;;;;;;;5057702;28;4495;-60
2023/05/10 12:13:13;;;;;;;;;;;;;;;;;;5058510;28;4470;-62
2023/05/10 12:15:39;;;;;;;;;;;;;;;;;;5048063;28;1310;-60
2023/05/10 12:18:05;;;;;;;;;;;;;;;;;;5055182;28;4478;-60
2023/05/10 12:20:30;;;;;;;;;;;;;;;;;;5055250;28;4654;-59
2023/05/10 12:22:56;;;;;;;;;;;;;;;;;;5056085;28;4580;-60
2023/05/10 12:25:22;;;;;;;;;;;;;;;;;;5052984;28;5049;-65
2023/05/10 12:27:48;;;;;;;;;;;;;;;;;;5051447;28;1642;-64
2023/05/10 12:30:14;;;;;;;;;;;;;;;;;;5051782;28;4465;-63
2023/05/10 12:32:43;;;;;;;;;;;;;;;;;;5048087;28;5400;-65
2023/05/10 12:35:08;;;;;;;;;;;;;;;;;;5057928;28;5012;-61
2023/05/10 12:37:38;;;;;;;;;;;;;;;;;;5059866;28;4540;-65
2023/05/10 12:40:07;;;;;;;;;;;;;;;;;;5050545;28;5187;-63
2023/05/10 12:42:33;;;;;;;;;;;;;;;;;;5047685;28;1722;-67
2023/05/10 12:44:58;;;;;;;;;;;;;;;;;;5050906;28;4580;-61
2023/05/10 12:47:23;;;;;;;;;;;;;;;;;;5047134;28;4569;-62
2023/05/10 12:49:49;;;;;;;;;;;;;;;;;;5054389;28;4762;-62
2023/05/10 12:52:14;;;;;;;;;;;;;;;;;;5050442;28;5238;-62
2023/05/10 12:54:39;;;;;;;;;;;;;;;;;;5057008;28;1716;-64
2023/05/10 12:57:05;;;;;;;;;;;;;;;;;;5053137;28;4745;-64
2023/05/10 12:59:30;;;;;;;;;;;;;;;;;;5050127;28;5017;-60
2023/05/10 13:01:56;;;;;;;;;;;;;;;;;;5046465;28;4677;-60
2023/05/10 13:04:22;;;;;;;;;;;;;;;;;;5049531;28;5064;-60
2023/05/10 13:06:47;;;;;;;;;;;;;;;;;;5053522;28;1419;-60
2023/05/10 13:09:12;;;;;;;;;;;;;;;;;;5053100;28;6191;-62
2023/05/10 13:11:37;;;;;;;;;;;;;;;;;;5057552;28;4606;-63
2023/05/10 13:14:03;;;;;;;;;;;;;;;;;;5046541;28;4528;-64
2023/05/10 13:16:28;;;;;;;;;;;;;;;;;;5047268;28;4740;-63
2023/05/10 13:18:53;;;;;;;;;;;;;;;;;;5051000;28;1671;-61
2023/05/10 13:21:19;;;;;;;;;;;;;;;;;;5058700;28;4553;-62
2023/05/10 13:23:44;;;;;;;;;;;;;;;;;;5051029;28;4621;-65
2023/05/10 13:26:09;;;;;;;;;;;;;;;;;;5050278;28;4803;-63
2023/05/10 13:28:34;;;;;;;;;;;;;;;;;;5044977;28;4524;-63
2023/05/10 13:31:00;;;;;;;;;;;;;;;;;;5044400;28;5115;-63
2023/05/10 13:33:25;;;;;;;;;;;;;;;;;;5055373;28;1680;-63
2023/05/10 13:35:50;;;;;;;;;;;;;;;;;;5049683;28;4726;-61
2023/05/10 13:38:15;;;;;;;;;;;;;;;;;;5059534;28;5376;-59
2023/05/10 13:40:41;;;;;;;;;;;;;;;;;;5045472;28;4980;-59
2023/05/10 13:43:07;;;;;;;;;;;;;;;;;;5047818;28;5131;-60
2023/05/10 13:45:32;;;;;;;;;;;;;;;;;;5048981;28;1674;-60
2023/05/10 13:47:58;;;;;;;;;;;;;;;;;;5052171;28;5080;-60
2023/05/10 13:50:23;;;;;;;;;;;;;;;;;;5052061;28;4629;-59
2023/05/10 13:52:48;;;;;;;;;;;;;;;;;;5050576;28;4554;-61
2023/05/10 13:55:14;;;;;;;;;;;;;;;;;;5048241;28;5108;-61
2023/05/10 13:57:39;;;;;;;;;;;;;;;;;;5051975;28;1105;-63
2023/05/10 14:00:05;;;;;;;;;;;;;;;;;;5051686;28;4444;-64
2023/05/10 14:02:30;;;;;;;;;;;;;;;;;;5045268;28;5060;-63
2023/05/10 14:04:55;;;;;;;;;;;;;;;;;;5055630;28;5054;-63
2023/05/10 14:07:21;;;;;;;;;;;;;;;;;;5053487;28;4453;-61
2023/05/10 14:09:46;;;;;;;;;;;;;;;;;;5050427;28;6277;-63
2023/05/10 14:12:11;;;;;;;;;;;;;;;;;;5048564;28;4481;-63
2023/05/10 14:14:37;;;;;;;;;;;;;;;;;;5057574;28;4471;-64
2023/05/10 14:17:02;;;;;;;;;;;;;;;;;;5055514;28;4488;-64
2023/05/10 14:19:30;;;;;;;;;;;;;;;;;;5031085;28;4511;-60
2023/05/10 14:21:55;;;;;;;;;;;;;;;;;;5046828;28;1942;-63
2023/05/10 14:24:20;;;;;;;;;;;;;;;;;;5047615;28;4579;-60
2023/05/10 14:26:46;;;;;;;;;;;;;;;;;;5060991;28;4864;-61
2023/05/10 14:29:11;;;;;;;;;;;;;;;;;;5055473;28;4453;-62
2023/05/10 14:31:36;;;;;;;;;;;;;;;;;;5052247;28;4461;-60
2023/05/10 14:34:02;;;;;;;;;;;;;;;;;;5060033;28;4659;-62
2023/05/10 14:36:28;;;;;;;;;;;;;;;;;;5048188;28;974;-64
2023/05/10 14:38:54;;;;;;;;;;;;;;;;;;5051002;28;4671;-62
2023/05/10 14:41:19;;;;;;;;;;;;;;;;;;5045852;28;5434;-63
2023/05/10 14:43:44;;;;;;;;;;;;;;;;;;5041180;28;5115;-63
2023/05/10 14:46:09;;;;;;;;;;;;;;;;;;5049421;28;4457;-62
2023/05/10 14:48:35;;;;;;;;;;;;;;;;;;5054547;28;1112;-64
2023/05/10 14:51:00;;;;;;;;;;;;;;;;;;5062422;28;4413;-61
2023/05/10 14:53:25;;;;;;;;;;;;;;;;;;5053672;28;4967;-62
2023/05/10 14:55:51;;;;;;;;;;;;;;;;;;5050056;28;5068;-62
2023/05/10 14:58:16;;;;;;;;;;;;;;;;;;5064274;28;4473;-63
2023/05/10 15:00:41;;;;;;;;;;;;;;;;;;5064039;28;1918;-62
2023/05/10 15:03:06;;;;;;;;;;;;;;;;;;5052266;28;4436;-62
2023/05/10 15:05:32;;;;;;;;;;;;;;;;;;5059638;28;4472;-62
2023/05/10 15:07:57;;;;;;;;;;;;;;;;;;5057725;28;4477;-60
2023/05/10 15:10:22;;;;;;;;;;;;;;;;;;5052094;28;7054;-61
2023/05/10 15:12:47;;;;;;;;;;;;;;;;;;5061836;28;1154;-61
2023/05/10 15:15:13;;;;;;;;;;;;;;;;;;5041987;28;4665;-63
2023/05/10 15:17:38;;;;;;;;;;;;;;;;;;5062554;28;5029;-63
2023/05/10 15:20:04;;;;;;;;;;;;;;;;;;5055477;28;4809;-62
2023/05/10 15:22:31;;;;;;;;;;;;;;;;;;5060813;28;4448;-63
2023/05/10 15:24:56;;;;;;;;;;;;;;;;;;5059366;28;4659;-58
2023/05/10 15:27:21;;;;;;;;;;;;;;;;;;5055958;28;1531;-63
2023/05/10 15:29:47;;;;;;;;;;;;;;;;;;5060633;28;4509;-57
2023/05/10 15:32:12;;;;;;;;;;;;;;;;;;5051882;28;4480;-60
2023/05/10 15:34:37;;;;;;;;;;;;;;;;;;5056621;28;4699;-62
2023/05/10 15:37:02;;;;;;;;;;;;;;;;;;5054906;28;4464;-59
2023/05/10 15:39:28;;;;;;;;;;;;;;;;;;5070058;28;1177;-61
2023/05/10 15:41:53;;;;;;;;;;;;;;;;;;5057185;28;4742;-61
2023/05/10 15:44:18;;;;;;;;;;;;;;;;;;5054519;28;5084;-60
2023/05/10 15:46:43;;;;;;;;;;;;;;;;;;5053918;28;5057;-61
2023/05/10 15:49:09;;;;;;;;;;;;;;;;;;5061832;28;4536;-62
2023/05/10 15:51:34;;;;;;;;;;;;;;;;;;5061202;28;1253;-63
2023/05/10 15:54:01;;;;;;;;;;;;;;;;;;5057546;28;4467;-63
2023/05/10 15:56:27;;;;;;;;;;;;;;;;;;5056921;28;4465;-63
2023/05/10 15:58:52;;;;;;;;;;;;;;;;;;5066599;28;4612;-62
2023/05/10 16:01:17;;;;;;;;;;;;;;;;;;5055214;28;5013;-61
2023/05/10 16:03:42;;;;;;;;;;;;;;;;;;5054415;28;1244;-60
2023/05/10 16:06:08;;;;;;;;;;;;;;;;;;5062857;28;4408;-62
2023/05/10 16:08:33;;;;;;;;;;;;;;;;;;5054840;28;6395;-63
2023/05/10 16:10:58;;;;;;;;;;;;;;;;;;5047542;28;4619;-60
2023/05/10 16:13:24;;;;;;;;;;;;;;;;;;5050899;28;4712;-62
2023/05/10 16:15:49;;;;;;;;;;;;;;;;;;5045639;28;1105;-63
2023/05/10 16:18:16;;;;;;;;;;;;;;;;;;5059494;28;4557;-60
2023/05/10 16:20:41;;;;;;;;;;;;;;;;;;5046794;28;4409;-61
2023/05/10 16:23:07;;;;;;;;;;;;;;;;;;5052992;28;4495;-63
2023/05/10 16:25:32;;;;;;;;;;;;;;;;;;5054420;28;4632;-64
2023/05/10 16:27:57;;;;;;;;;;;;;;;;;;5053362;28;5029;-63
2023/05/10 16:30:28;;;;;;;;;;;;;;;;;;5053647;28;1521;-62
2023/05/10 16:32:54;;;;;;;;;;;;;;;;;;5045894;28;4795;-61
2023/05/10 16:35:19;;;;;;;;;;;;;;;;;;5049462;28;4640;-63
2023/05/10 16:37:45;;;;;;;;;;;;;;;;;;5056211;28;4436;-63
2023/05/10 16:40:10;;;;;;;;;;;;;;;;;;5050050;28;4648;-63
2023/05/10 16:42:35;;;;;;;;;;;;;;;;;;5053397;28;1159;-64
2023/05/10 16:45:06;;;;;;;;;;;;;;;;;;5042807;28;4642;-63
2023/05/10 16:47:31;;;;;;;;;;;;;;;;;;5052392;28;4775;-63
2023/05/10 16:49:56;;;;;;;;;;;;;;;;;;5063406;28;5230;-64
2023/05/10 16:52:22;;;;;;;;;;;;;;;;;;5062939;28;5001;-61
2023/05/10 16:54:47;;;;;;;;;;;;;;;;;;5054811;28;1118;-59